NCAR-RAP Real-Time Weather Data

Output produced by METARs form (12 May 2021  11:53 UTC)
found at http://weather.rap.ucar.edu/surface/
 
KCAO 121131Z AUTO 08003KT 5SM BR BKN004 BKN013 OVC022 04/03 A3035 RMK AO2 RAE04 P0000 T00440033
KCAO 121125Z AUTO 08003KT 4SM BR SCT006 BKN012 OVC022 04/03 A3034 RMK AO2 RAE04 P0000 T00440033
KCAO 121118Z AUTO 09003KT 5SM BR FEW006 BKN009 OVC021 04/03 A3034 RMK AO2 RAE04 P0000 T00440033
KCAO 121111Z AUTO 09004KT 7SM BKN006 BKN013 OVC022 04/03 A3034 RMK AO2 RAE04 P0000 T00440033
KCAO 121055Z AUTO 09003KT 4SM -RA BR SCT004 OVC010 04/03 A3034 RMK AO2 RAE16B32 CIG 006V013 SLP272 P0001 T00440033
KCAO 121028Z AUTO 06004KT 3SM BR BKN004 BKN012 OVC018 04/03 A3033 RMK AO2 RAE16 CIG 003V008 P0001 T00440033
KCAO 121023Z AUTO 07004KT 3SM BR SCT006 BKN012 OVC018 04/03 A3033 RMK AO2 RAE16 P0001 T00390033
KCAO 121017Z AUTO 06004KT 4SM BR BKN006 BKN009 OVC014 04/03 A3033 RMK AO2 RAE16 CIG 003V007 P0001 T00390033
KCAO 121008Z AUTO 07004KT 3SM -RA BR BKN005 OVC011 04/03 A3033 RMK AO2 CIG 003V009 P0001 T00440033
KCAO 120955Z AUTO 09003KT 4SM -RA BR SCT005 OVC011 04/03 A3034 RMK AO2 RAB37 SLP271 P0000 T00440033
KCAO 120951Z AUTO 00000KT 3SM -RA BR SCT005 OVC010 04/03 A3034 RMK AO2 RAB37 P0000
KCAO 120926Z AUTO 07003KT 5SM BR BKN005 OVC011 04/03 A3033 RMK AO2 CIG 003V007 T00440033
KCAO 120855Z AUTO 06005KT 7SM SCT005 OVC012 04/03 A3033 RMK AO2 RAB24E35 SLP266 P0000 60000 T00440033 56005
KCAO 120843Z AUTO 06005KT 7SM BKN005 OVC012 04/03 A3032 RMK AO2 RAB24E35 CIG 004V009 P0000 T00440033
KCAO 120755Z AUTO 02003KT 8SM BKN007 OVC010 04/03 A3034 RMK AO2 CIG 004V008 SLP271 T00440033
KCAO 120655Z AUTO 04006KT 8SM BKN007 OVC012 04/03 A3033 RMK AO2 CIG 004V009 SLP272 T00390033 400610033
KCAO 120610Z AUTO 07005KT 8SM BKN006 OVC020 04/03 A3034 RMK AO2 CIG 003V009 T00390033
KCAO 120555Z AUTO 05004KT 8SM FEW006 OVC021 04/03 A3034 RMK AO2 SLP276 60000 T00390033 10044 20039 51012
KCAO 120524Z AUTO 03006KT 8SM FEW005 BKN019 OVC046 04/03 A3033 RMK AO2 T00390028
KCAO 120455Z AUTO 04007KT 8SM BKN005 OVC019 04/03 A3033 RMK AO2 RAE13 CIG 003V007 SLP273 P0000 T00390033
KCAO 120441Z AUTO 04008KT 9SM BKN005 OVC018 04/03 A3034 RMK AO2 RAE13 CIG 003V007 P0000 T00390033
KCAO 120413Z AUTO 05007KT 7SM SCT005 OVC016 04/03 A3034 RMK AO2 RAE13 P0000 T00390033
KCAO 120355Z AUTO 06011KT 5SM -RA BR BKN005 OVC012 04/03 A3033 RMK AO2 RAB40 CIG 003V009 SLP270 P0000 T00390033
KCAO 120255Z AUTO 05013KT 5SM BR OVC006 04/03 A3030 RMK AO2 RAB18E27 CIG 003V007 SLP260 P0000 60000 T00390033 53023
KCAO 120214Z AUTO 05010KT 6SM BR OVC006 04/03 A3028 RMK AO2 CIG 003V010 T00390033
KCAO 120155Z AUTO 06010KT 5SM BR OVC002 04/03 A3026 RMK AO2 RAB26E41 SLP246 P0000 T00390033
KCAO 120151Z AUTO 06011KT 4SM BR OVC002 04/03 A3026 RMK AO2 RAB26E41 P0000
KCAO 120143Z AUTO 07014KT 2SM BR BKN002 OVC007 04/03 A3025 RMK AO2 RAB26E41 P0000 T00390033
KCAO 120139Z AUTO 07013KT 1SM -RA BR BKN002 BKN007 OVC011 04/03 A3025 RMK AO2 RAB26 P0000 T00390033
KCAO 120127Z AUTO 07015G19KT 3/4SM -RA BR FEW002 BKN007 OVC011 04/03 A3024 RMK AO2 RAB26 P0000 T00390033
KCAO 120125Z AUTO 06013KT 2SM BR BKN005 OVC011 04/03 A3024 RMK AO2 T00390033
KCAO 120113Z AUTO 06008KT 10SM SCT005 OVC011 04/04 A3024 RMK AO2 T00390039
KCAO 120055Z AUTO 07010KT 4SM BR OVC004 04/04 A3023 RMK AO2 RAB38E47 SLP233 P0000 T00390039
KCAO 120043Z AUTO 06013KT 2SM -RA BR BKN002 OVC006 04/04 A3022 RMK AO2 RAB38 P0000 T00390039
KCAO 120040Z AUTO 06014KT 1 1/4SM -RA BR OVC002 04/04 A3021 RMK AO2 RAB38 P0000 T00390039
KCAO 120018Z AUTO 06013KT 1/4SM FG OVC002 04/04 A3022 RMK AO2 T00390039
KCAO 120013Z AUTO 08012KT 1 1/4SM BR OVC002 04/04 A3021 RMK AO2 T00390039
KCAO 120004Z AUTO 09010KT 2SM BR OVC002 04/04 A3021 RMK AO2 T00390039
KCAO 120002Z AUTO 08011KT 1SM BR VV002 04/04 A3021 RMK AO2 T00390039
KCAO 112355Z AUTO 07010KT 1/4SM FG VV002 04/04 A3020 RMK AO2 SLP225 60000 T00440039 10050 20039 53010
KCAO 112339Z AUTO 08013KT 1/4SM FG VV002 04/04 A3019 RMK AO2 T00440039
KCAO 112331Z AUTO 06014KT 3/4SM BR OVC002 04/04 A3019 RMK AO2 T00440039
KCAO 112329Z AUTO 07012KT 2 1/2SM BR OVC002 04/04 A3019 RMK AO2 T00440039
KCAO 112327Z AUTO 07012KT 1SM BR OVC002 04/04 A3019 RMK AO2 T00440039
KCAO 112312Z AUTO 07013KT 1/4SM FG VV002 04/04 A3018 RMK AO2 T00440039
KCAO 112307Z AUTO 07014KT 1 1/4SM BR OVC002 04/04 A3018 RMK AO2 T00440039
KCAO 112303Z AUTO 08012KT 2 1/2SM BR OVC002 04/04 A3018 RMK AO2 T00440039
KCAO 112300Z AUTO 07013KT 1SM BR VV002 04/04 A3018 RMK AO2 T00440039
KCAO 112255Z AUTO 07015KT 1/4SM FG VV002 04/04 A3017 RMK AO2 RAB10E26 SLP210 P0000 T00440039
KCAO 112155Z AUTO 07012KT M1/4SM FG VV002 04/03 A3018 RMK AO2 SLP211 T00440033